createdAt,value
2017-07-22T00:00:06.654Z,65.50
2017-07-22T00:03:10.337Z,65.40
2017-07-22T00:06:13.643Z,65.80
2017-07-22T00:09:16.979Z,65.50
2017-07-22T00:12:20.285Z,65.20
2017-07-22T00:15:24.364Z,65.20
2017-07-22T00:18:27.646Z,65.20
2017-07-22T00:21:30.984Z,65.00
2017-07-22T00:24:34.538Z,65.40
2017-07-22T00:27:37.814Z,65.20
2017-07-22T00:30:41.148Z,64.90
2017-07-22T00:33:44.435Z,64.90
2017-07-22T00:36:47.779Z,65.40
2017-07-22T00:39:51.864Z,65.80
2017-07-22T00:42:55.192Z,65.80
2017-07-22T00:45:59.572Z,65.90
2017-07-22T00:49:02.877Z,65.90
2017-07-22T00:52:06.219Z,66.00
2017-07-22T00:55:09.497Z,65.50
2017-07-22T00:58:12.802Z,65.30
2017-07-22T01:01:16.104Z,65.40
2017-07-22T01:04:19.418Z,65.00
2017-07-22T01:07:22.733Z,65.80
2017-07-22T01:10:26.027Z,66.10
2017-07-22T01:13:29.366Z,66.30
2017-07-22T01:16:32.645Z,66.20
2017-07-22T01:19:35.966Z,66.20
2017-07-22T01:22:40.011Z,65.70
2017-07-22T01:25:43.334Z,65.70
2017-07-22T01:28:46.617Z,66.20
2017-07-22T01:31:49.953Z,66.70
2017-07-22T01:34:53.286Z,62.40
2017-07-22T01:37:56.577Z,61.40
2017-07-22T01:40:59.905Z,64.80
2017-07-22T01:44:03.213Z,69.90
2017-07-22T01:47:06.523Z,74.30
2017-07-22T01:50:09.838Z,77.40
2017-07-22T01:53:13.938Z,79.60
2017-07-22T01:56:17.251Z,78.80
2017-07-22T01:59:21.319Z,79.10
2017-07-22T02:02:24.627Z,79.00
2017-07-22T02:05:27.928Z,78.60
2017-07-22T02:08:31.240Z,80.00
2017-07-22T02:11:34.541Z,79.60
2017-07-22T02:14:37.846Z,79.60
2017-07-22T02:17:42.023Z,79.80
2017-07-22T02:20:45.325Z,79.70
2017-07-22T02:23:48.630Z,79.40
2017-07-22T02:26:51.932Z,80.60
2017-07-22T02:29:55.274Z,80.60
2017-07-22T02:32:58.545Z,79.50
2017-07-22T02:36:02.623Z,80.20
2017-07-22T02:39:06.071Z,80.20
2017-07-22T02:42:09.351Z,79.20
2017-07-22T02:45:13.431Z,78.90
2017-07-22T02:48:16.729Z,78.90
2017-07-22T02:51:20.042Z,79.40
2017-07-22T02:54:23.330Z,79.20
2017-07-22T02:57:26.645Z,79.30
2017-07-22T03:00:30.751Z,78.70
2017-07-22T03:03:34.060Z,78.40
2017-07-22T03:06:38.136Z,78.20
2017-07-22T03:09:41.418Z,77.90
2017-07-22T03:12:44.723Z,77.90
2017-07-22T03:15:47.997Z,77.40
2017-07-22T03:18:51.499Z,77.20
2017-07-22T03:21:54.993Z,78.10
2017-07-22T03:24:59.107Z,77.30
2017-07-22T03:28:02.833Z,78.10
2017-07-22T03:31:06.411Z,78.30
2017-07-22T03:34:09.754Z,77.80
2017-07-22T03:37:13.057Z,77.90
2017-07-22T03:40:16.375Z,77.30
2017-07-22T03:43:19.680Z,77.30
2017-07-22T03:46:23.765Z,77.10
2017-07-22T03:49:27.072Z,77.10
2017-07-22T03:52:31.150Z,76.80
2017-07-22T03:55:34.631Z,77.30
2017-07-22T03:58:37.911Z,77.30
2017-07-22T04:01:41.245Z,77.50
2017-07-22T04:04:44.549Z,77.20
2017-07-22T04:07:47.860Z,77.20
2017-07-22T04:10:51.140Z,77.10
2017-07-22T04:13:54.473Z,77.00
2017-07-22T04:16:58.541Z,76.70
2017-07-22T04:20:01.826Z,76.70
2017-07-22T04:23:05.153Z,77.30
2017-07-22T04:26:08.463Z,77.10
2017-07-22T04:29:11.777Z,76.80
2017-07-22T04:32:15.821Z,77.10
2017-07-22T04:35:19.125Z,77.10
2017-07-22T04:38:22.407Z,77.10
2017-07-22T04:41:25.719Z,76.90
2017-07-22T04:44:29.156Z,77.30
2017-07-22T04:47:32.458Z,77.20
2017-07-22T04:50:36.533Z,77.30
2017-07-22T04:53:39.833Z,77.30
2017-07-22T04:56:43.174Z,77.30
2017-07-22T04:59:46.458Z,77.00
2017-07-22T05:02:49.771Z,76.80
2017-07-22T05:05:53.817Z,76.80
2017-07-22T05:08:57.153Z,76.70
2017-07-22T05:12:00.426Z,76.90
2017-07-22T05:15:03.760Z,76.90
2017-07-22T05:18:07.834Z,76.90
2017-07-22T05:21:11.109Z,76.90
2017-07-22T05:24:14.446Z,77.30
2017-07-22T05:27:17.770Z,77.70
2017-07-22T05:30:21.866Z,77.70
2017-07-22T05:33:25.150Z,77.60
2017-07-22T05:36:28.459Z,77.40
2017-07-22T05:39:31.738Z,77.20
2017-07-22T05:42:35.068Z,77.60
2017-07-22T05:45:38.405Z,77.60
2017-07-22T05:48:41.702Z,77.70
2017-07-22T05:51:45.035Z,78.20
2017-07-22T05:54:48.314Z,78.00
2017-07-22T05:57:51.647Z,78.20
2017-07-22T06:00:55.826Z,78.60
2017-07-22T06:03:59.106Z,78.60
2017-07-22T06:07:02.441Z,78.50
2017-07-22T06:10:06.066Z,78.20
2017-07-22T06:13:10.157Z,78.60
2017-07-22T06:16:13.444Z,78.60
2017-07-22T06:19:16.758Z,79.10
2017-07-22T06:22:20.820Z,79.40
2017-07-22T06:25:24.134Z,79.40
2017-07-22T06:28:27.433Z,79.30
2017-07-22T06:31:30.764Z,79.70
2017-07-22T06:34:34.072Z,79.80
2017-07-22T06:37:38.171Z,79.80
2017-07-22T06:40:42.417Z,79.90
2017-07-22T06:43:45.693Z,79.80
2017-07-22T06:46:49.790Z,80.60
2017-07-22T06:49:53.091Z,80.60
2017-07-22T06:52:56.402Z,81.10
2017-07-22T06:56:00.687Z,80.60
2017-07-22T06:59:03.992Z,80.60
2017-07-22T07:02:07.328Z,80.90
2017-07-22T07:05:10.630Z,80.80
2017-07-22T07:08:13.941Z,80.70
2017-07-22T07:11:17.222Z,80.80
2017-07-22T07:14:20.581Z,80.60
2017-07-22T07:17:23.885Z,79.20
2017-07-22T07:20:27.989Z,79.70
2017-07-22T07:23:31.306Z,79.50
2017-07-22T07:26:35.379Z,78.70
2017-07-22T07:29:38.716Z,78.60
2017-07-22T07:32:42.765Z,81.90
2017-07-22T07:35:46.082Z,81.90
2017-07-22T07:38:49.369Z,80.90
2017-07-22T07:41:52.706Z,78.00
2017-07-22T07:44:56.768Z,79.70
2017-07-22T07:48:00.077Z,79.70
2017-07-22T07:51:03.386Z,78.10
2017-07-22T07:54:06.702Z,79.90
2017-07-22T07:57:09.981Z,78.30
2017-07-22T08:00:13.432Z,77.80
2017-07-22T08:03:16.786Z,78.80
2017-07-22T08:06:20.065Z,78.00
2017-07-22T08:09:23.375Z,80.40
2017-07-22T08:12:26.698Z,78.80
2017-07-22T08:15:30.072Z,78.60
2017-07-22T08:18:33.376Z,73.40
2017-07-22T08:21:36.845Z,73.30
2017-07-22T08:24:40.290Z,77.50
2017-07-22T08:27:43.659Z,76.20
2017-07-22T08:30:47.310Z,77.10
2017-07-22T08:33:50.709Z,72.00
2017-07-22T08:36:54.165Z,74.70
2017-07-22T08:39:58.226Z,75.70
2017-07-22T08:43:01.534Z,75.20
2017-07-22T08:46:04.822Z,70.40
2017-07-22T08:49:08.162Z,75.70
2017-07-22T08:52:11.650Z,77.40
2017-07-22T08:55:14.956Z,78.20
2017-07-22T08:58:18.272Z,77.70
2017-07-22T09:01:22.342Z,78.60
2017-07-22T09:04:25.684Z,78.50
2017-07-22T09:07:29.734Z,75.20
2017-07-22T09:10:33.072Z,74.60
2017-07-22T09:13:36.376Z,78.00
2017-07-22T09:16:39.681Z,78.80
2017-07-22T09:19:43.756Z,72.10
2017-07-22T09:22:47.041Z,72.00
2017-07-22T09:25:50.346Z,67.10
2017-07-22T09:28:53.643Z,77.20
2017-07-22T09:31:56.977Z,74.90
2017-07-22T09:35:00.285Z,67.20
2017-07-22T09:38:04.465Z,73.40
2017-07-22T09:41:07.743Z,73.30
2017-07-22T09:44:11.062Z,67.30
2017-07-22T09:47:14.343Z,63.20
2017-07-22T09:50:17.655Z,63.80
2017-07-22T09:53:20.994Z,61.80
2017-07-22T09:56:24.298Z,58.50
2017-07-22T09:59:27.628Z,70.40
2017-07-22T10:02:30.907Z,67.30
2017-07-22T10:05:34.215Z,72.00
2017-07-22T10:08:37.525Z,68.40
2017-07-22T10:11:40.834Z,62.70
2017-07-22T10:14:44.141Z,58.30
2017-07-22T10:17:48.242Z,57.90
2017-07-22T10:20:51.521Z,58.20
2017-07-22T10:23:54.831Z,60.20
2017-07-22T10:26:58.137Z,59.60
2017-07-22T10:30:01.449Z,56.70
2017-07-22T10:33:05.908Z,52.10
2017-07-22T10:36:09.193Z,52.10
2017-07-22T10:39:12.503Z,50.70
2017-07-22T10:42:15.810Z,48.50
2017-07-22T10:45:19.127Z,51.40
2017-07-22T10:48:22.438Z,50.10
2017-07-22T10:51:25.740Z,51.80
2017-07-22T10:54:29.845Z,54.90
2017-07-22T10:57:33.117Z,54.90
2017-07-22T11:00:36.425Z,53.60
2017-07-22T11:03:39.702Z,58.80
2017-07-22T11:06:43.013Z,51.00
2017-07-22T11:09:46.289Z,52.40
2017-07-22T11:12:49.621Z,52.50
2017-07-22T11:15:52.957Z,60.30
2017-07-22T11:18:56.261Z,54.50
2017-07-22T11:21:59.588Z,50.00
2017-07-22T11:25:02.874Z,53.20
2017-07-22T11:28:06.186Z,54.10
2017-07-22T11:31:09.486Z,51.50
2017-07-22T11:34:12.825Z,50.40
2017-07-22T11:37:16.123Z,51.70
2017-07-22T11:40:19.456Z,51.30
2017-07-22T11:43:22.770Z,51.50
2017-07-22T11:46:26.047Z,50.90
2017-07-22T11:49:29.354Z,52.50
2017-07-22T11:52:32.656Z,55.10
2017-07-22T11:55:35.963Z,54.30
2017-07-22T11:58:39.250Z,58.30
2017-07-22T12:01:42.586Z,59.80
2017-07-22T12:04:46.233Z,58.00
2017-07-22T12:07:49.534Z,56.50
2017-07-22T12:10:52.869Z,56.50
2017-07-22T12:13:57.015Z,61.80
2017-07-22T12:17:00.353Z,64.70
2017-07-22T12:20:03.822Z,62.00
2017-07-22T12:23:07.101Z,64.10
2017-07-22T12:26:10.438Z,64.60
2017-07-22T12:29:13.787Z,64.00
2017-07-22T12:32:17.125Z,58.60
2017-07-22T12:35:20.398Z,60.00
2017-07-22T12:38:23.707Z,62.60
2017-07-22T12:41:27.320Z,60.90
2017-07-22T12:44:30.597Z,57.30
2017-07-22T12:47:33.928Z,56.00
2017-07-22T12:50:37.206Z,60.10
2017-07-22T12:53:40.521Z,54.60
2017-07-22T12:56:43.833Z,56.20
2017-07-22T12:59:47.941Z,58.70
2017-07-22T13:02:51.246Z,58.60
2017-07-22T13:05:54.545Z,64.20
2017-07-22T13:08:58.650Z,69.50
2017-07-22T13:12:01.935Z,69.10
2017-07-22T13:15:05.246Z,67.50
2017-07-22T13:18:09.304Z,59.50
2017-07-22T13:21:12.641Z,59.50
2017-07-22T13:24:16.443Z,63.40
2017-07-22T13:27:20.428Z,60.50
2017-07-22T13:30:24.126Z,58.60
2017-07-22T13:33:27.558Z,56.40
2017-07-22T13:36:31.655Z,55.00
2017-07-22T13:39:35.030Z,54.90
2017-07-22T13:42:38.372Z,55.30
2017-07-22T13:45:42.059Z,54.80
2017-07-22T13:48:45.416Z,54.30
2017-07-22T13:51:51.580Z,58.50
2017-07-22T13:54:54.937Z,54.00
2017-07-22T13:57:59.069Z,55.90
2017-07-22T14:01:03.172Z,53.90
2017-07-22T14:04:06.497Z,53.70
2017-07-22T14:07:11.150Z,53.70
2017-07-22T14:10:15.247Z,53.60
2017-07-22T14:13:18.582Z,53.60
2017-07-22T14:16:22.013Z,56.50
2017-07-22T14:19:26.182Z,52.50
2017-07-22T14:22:29.593Z,51.70
2017-07-22T14:25:33.052Z,53.30
2017-07-22T14:28:36.485Z,53.00
2017-07-22T14:31:39.810Z,55.90
2017-07-22T14:34:43.135Z,54.60
2017-07-22T14:37:46.494Z,54.20
2017-07-22T14:40:49.817Z,56.20
2017-07-22T14:43:53.405Z,54.20
2017-07-22T14:46:56.711Z,54.10
2017-07-22T14:49:59.985Z,54.50
2017-07-22T14:53:03.357Z,52.90
2017-07-22T14:56:06.728Z,55.00
2017-07-22T14:59:10.817Z,55.50
2017-07-22T15:02:14.207Z,55.50
2017-07-22T15:05:17.555Z,56.20
2017-07-22T15:08:20.882Z,57.50
2017-07-22T15:11:24.255Z,58.70
2017-07-22T15:14:27.692Z,60.80
2017-07-22T15:17:31.336Z,57.50
2017-07-22T15:20:34.655Z,58.90
2017-07-22T15:23:37.994Z,59.90
2017-07-22T15:26:41.273Z,58.00
2017-07-22T15:29:44.584Z,57.60
2017-07-22T15:32:47.861Z,57.80
2017-07-22T15:35:51.196Z,61.00
2017-07-22T15:38:54.636Z,58.40
2017-07-22T15:41:57.937Z,57.30
2017-07-22T15:45:01.250Z,59.20
2017-07-22T15:48:04.530Z,55.40
2017-07-22T15:51:07.864Z,59.10
2017-07-22T15:54:11.168Z,57.20
2017-07-22T15:57:14.498Z,58.50
2017-07-22T16:00:17.823Z,57.20
2017-07-22T16:03:21.124Z,53.50
2017-07-22T16:06:24.460Z,55.90
2017-07-22T16:09:27.740Z,55.00
2017-07-22T16:12:31.059Z,54.90
2017-07-22T16:15:34.357Z,58.30
2017-07-22T16:18:37.661Z,59.80
2017-07-22T16:21:40.998Z,59.10
2017-07-22T16:24:44.273Z,59.80
2017-07-22T16:27:47.606Z,60.80
2017-07-22T16:30:51.678Z,61.80
2017-07-22T16:33:55.011Z,61.90
2017-07-22T16:36:58.289Z,61.90
2017-07-22T16:40:01.606Z,60.50
2017-07-22T16:43:05.858Z,61.70
2017-07-22T16:46:09.161Z,61.70
2017-07-22T16:49:12.493Z,59.50
2017-07-22T16:52:15.793Z,59.50
2017-07-22T16:55:19.105Z,59.20
2017-07-22T16:58:23.152Z,57.30
2017-07-22T17:01:26.467Z,57.30
2017-07-22T17:04:29.781Z,59.10
2017-07-22T17:07:33.057Z,60.50
2017-07-22T17:10:36.394Z,62.30
2017-07-22T17:13:40.446Z,64.80
2017-07-22T17:16:43.754Z,64.10
2017-07-22T17:19:47.210Z,63.90
2017-07-22T17:22:50.526Z,66.50
2017-07-22T17:25:53.842Z,68.00
2017-07-22T17:28:57.131Z,66.30
2017-07-22T17:32:00.458Z,67.90
2017-07-22T17:35:03.790Z,67.00
2017-07-22T17:38:07.909Z,66.90
2017-07-22T17:41:11.209Z,66.70
2017-07-22T17:44:14.561Z,68.80
2017-07-22T17:47:18.685Z,69.80
2017-07-22T17:50:21.988Z,69.70
2017-07-22T17:53:25.297Z,69.40
2017-07-22T17:56:29.356Z,71.20
2017-07-22T17:59:32.713Z,71.20
2017-07-22T18:02:36.020Z,72.00
2017-07-22T18:05:39.338Z,71.60
2017-07-22T18:08:42.682Z,71.80
2017-07-22T18:11:46.034Z,71.70
2017-07-22T18:14:49.348Z,71.60
2017-07-22T18:17:52.697Z,71.70
2017-07-22T18:20:56.037Z,72.30
2017-07-22T18:23:59.361Z,71.10
2017-07-22T18:27:02.670Z,72.30
2017-07-22T18:30:05.990Z,72.60
2017-07-22T18:33:10.109Z,72.60
2017-07-22T18:36:14.184Z,72.40
2017-07-22T18:39:17.541Z,72.40
2017-07-22T18:42:20.835Z,72.80
2017-07-22T18:45:24.171Z,72.60
2017-07-22T18:48:27.481Z,72.30
2017-07-22T18:51:30.807Z,72.40
2017-07-22T18:54:34.904Z,73.20
2017-07-22T18:57:38.969Z,70.80
2017-07-22T19:00:42.325Z,70.80
2017-07-22T19:03:46.378Z,73.00
2017-07-22T19:06:49.702Z,72.20
2017-07-22T19:09:53.346Z,72.20
2017-07-22T19:12:56.680Z,72.40
2017-07-22T19:16:00.028Z,72.40
2017-07-22T19:19:04.086Z,72.90
2017-07-22T19:22:07.397Z,72.20
2017-07-22T19:25:10.674Z,72.10
2017-07-22T19:28:13.986Z,71.90
2017-07-22T19:31:17.277Z,71.20
2017-07-22T19:34:20.629Z,72.10
2017-07-22T19:37:24.683Z,71.90
2017-07-22T19:40:28.044Z,71.90
2017-07-22T19:43:32.161Z,70.50
2017-07-22T19:46:36.261Z,71.10
2017-07-22T19:49:40.384Z,70.30
2017-07-22T19:52:44.437Z,70.40
2017-07-22T19:55:47.777Z,71.00
2017-07-22T19:58:51.404Z,71.10
2017-07-22T20:01:54.681Z,71.40
2017-07-22T20:04:57.987Z,71.10
2017-07-22T20:08:01.291Z,70.70
2017-07-22T20:11:04.623Z,70.00
2017-07-22T20:14:07.910Z,69.50
2017-07-22T20:17:11.222Z,69.40
2017-07-22T20:20:14.535Z,68.50
2017-07-22T20:23:17.850Z,67.90
2017-07-22T20:26:21.460Z,67.80
2017-07-22T20:29:24.733Z,67.70
2017-07-22T20:32:28.046Z,67.70
2017-07-22T20:35:31.347Z,67.70
2017-07-22T20:38:34.661Z,67.20
2017-07-22T20:41:37.938Z,67.00
2017-07-22T20:44:41.273Z,65.90
2017-07-22T20:47:45.061Z,66.40
2017-07-22T20:50:48.341Z,65.90
2017-07-22T20:53:51.678Z,65.90
2017-07-22T20:56:54.964Z,65.80
2017-07-22T20:59:58.305Z,65.30
2017-07-22T21:03:01.590Z,65.20
2017-07-22T21:06:05.673Z,65.10
2017-07-22T21:09:08.964Z,65.00
2017-07-22T21:12:12.277Z,65.20
2017-07-22T21:15:15.561Z,64.40
2017-07-22T21:18:18.878Z,64.90
2017-07-22T21:21:22.938Z,65.20
2017-07-22T21:24:26.269Z,64.60
2017-07-22T21:27:29.579Z,64.70
2017-07-22T21:30:33.646Z,65.40
2017-07-22T21:33:36.980Z,65.30
2017-07-22T21:36:40.285Z,64.30
2017-07-22T21:39:43.594Z,64.10
2017-07-22T21:42:46.881Z,64.60
2017-07-22T21:45:50.985Z,64.30
2017-07-22T21:48:54.558Z,64.30
2017-07-22T21:51:57.865Z,64.70
2017-07-22T21:55:01.178Z,63.70
2017-07-22T21:58:04.498Z,64.50
2017-07-22T22:01:07.840Z,64.50
2017-07-22T22:04:11.126Z,64.80
2017-07-22T22:07:14.461Z,65.00
2017-07-22T22:10:17.746Z,65.70
2017-07-22T22:13:21.058Z,64.90
2017-07-22T22:16:24.386Z,64.30
2017-07-22T22:19:27.693Z,62.60
2017-07-22T22:22:31.031Z,63.10
2017-07-22T22:25:34.332Z,63.70
2017-07-22T22:28:37.675Z,65.00
2017-07-22T22:31:40.953Z,64.70
2017-07-22T22:34:45.053Z,65.30
2017-07-22T22:37:49.152Z,64.80
2017-07-22T22:40:52.429Z,64.70
2017-07-22T22:43:55.842Z,65.10
2017-07-22T22:46:59.119Z,64.90
2017-07-22T22:50:02.439Z,64.30
2017-07-22T22:53:05.753Z,64.80
2017-07-22T22:56:09.825Z,65.60
2017-07-22T22:59:13.281Z,65.60
2017-07-22T23:02:16.558Z,65.70
2017-07-22T23:05:20.657Z,66.00
2017-07-22T23:08:23.939Z,66.00
2017-07-22T23:11:27.281Z,68.60
2017-07-22T23:14:30.589Z,70.40
2017-07-22T23:17:33.920Z,70.50
2017-07-22T23:20:37.269Z,70.40
2017-07-22T23:23:41.315Z,71.60
2017-07-22T23:26:44.626Z,71.60
2017-07-22T23:29:47.929Z,71.70
2017-07-22T23:32:51.264Z,72.00
2017-07-22T23:35:55.309Z,72.80
2017-07-22T23:38:58.645Z,72.70
2017-07-22T23:42:02.087Z,72.50
2017-07-22T23:45:05.389Z,72.40
2017-07-22T23:48:08.698Z,72.30
2017-07-22T23:51:11.976Z,72.20
2017-07-22T23:54:15.304Z,71.80
2017-07-22T23:57:18.619Z,71.80
